Time;durP1;ratioP1;P1;durP2;ratioP2;P2;SDS_P1;SDS_P2;PMS_P1;PMS_P2;Temp;Humidity;BMP_temperature;BMP_pressure;BME280_temperature;BME280_humidity;BME280_pressure;Samples;Min_cycle;Max_cycle;Signal;HPM_P1;HPM_P2
2022/06/12 00:01:11;;;;;;;5.03;3.17;;;;;;;18.25;62.39;93669.97;4991018;28;20024;-75
2022/06/12 00:03:37;;;;;;;3.35;2.50;;;;;;;18.21;62.95;93677.25;4992031;28;20498;-74
2022/06/12 00:06:04;;;;;;;4.75;3.38;;;;;;;18.19;63.22;93672.22;4990122;28;20034;-74
2022/06/12 00:08:31;;;;;;;3.47;2.67;;;;;;;18.12;63.73;93668.66;4990132;28;20065;-74
2022/06/12 00:10:59;;;;;;;6.90;3.95;;;;;;;18.16;64.23;93678.34;4990666;28;20042;-74
2022/06/12 00:13:28;;;;;;;5.90;3.55;;;;;;;18.12;63.85;93674.03;4991477;28;20531;-74
2022/06/12 00:15:54;;;;;;;4.00;3.55;;;;;;;17.98;64.61;93667.31;4988729;28;20041;-74
2022/06/12 00:18:20;;;;;;;5.65;3.50;;;;;;;18.04;64.84;93671.22;4992572;28;20125;-74
2022/06/12 00:20:46;;;;;;;4.20;3.25;;;;;;;17.99;64.54;93647.34;4988888;28;20038;-75
2022/06/12 00:23:15;;;;;;;8.73;3.60;;;;;;;18.07;64.86;93661.69;4990539;28;20046;-75
2022/06/12 00:25:41;;;;;;;4.95;3.70;;;;;;;17.98;65.28;93659.25;4989452;28;20578;-75
2022/06/12 00:28:07;;;;;;;4.35;3.30;;;;;;;17.95;64.75;93657.28;4991737;28;20432;-75
2022/06/12 00:30:33;;;;;;;3.70;3.20;;;;;;;17.86;65.57;93658.63;4992394;28;20022;-74
2022/06/12 00:32:59;;;;;;;5.20;3.78;;;;;;;17.80;65.72;93655.47;4988707;28;20042;-75
2022/06/12 00:35:29;;;;;;;4.22;3.35;;;;;;;17.83;65.89;93660.16;4991073;28;20045;-75
2022/06/12 00:37:55;;;;;;;6.05;4.03;;;;;;;17.80;65.96;93652.00;4989069;28;20047;-75
2022/06/12 00:40:22;;;;;;;4.80;3.42;;;;;;;17.79;65.90;93653.16;4988683;28;20523;-75
2022/06/12 00:42:52;;;;;;;3.92;3.10;;;;;;;17.84;66.03;93667.09;4991000;28;20061;-74
2022/06/12 00:45:29;;;;;;;5.90;3.67;;;;;;;17.86;65.97;93662.09;4988167;28;20046;-75
2022/06/12 00:47:56;;;;;;;3.90;3.28;;;;;;;17.74;66.37;93667.72;4990336;28;20792;-74
2022/06/12 00:50:22;;;;;;;6.30;4.25;;;;;;;17.80;66.33;93660.88;4990735;28;20037;-74
2022/06/12 00:52:50;;;;;;;4.30;3.33;;;;;;;17.68;66.01;93657.59;4988860;28;20046;-74
2022/06/12 00:55:47;;;;;;;4.63;3.78;;;;;;;17.77;66.18;93672.34;4990923;28;20030;-75
2022/06/12 00:58:19;;;;;;;6.60;3.60;;;;;;;17.71;66.72;93663.03;4990851;28;20030;-75
2022/06/12 01:00:47;;;;;;;7.22;3.80;;;;;;;17.76;66.45;93657.34;4989335;28;20764;-75
2022/06/12 01:03:14;;;;;;;4.43;3.45;;;;;;;17.64;66.29;93651.41;4987734;28;20038;-75
2022/06/12 01:08:24;;;;;;;5.90;4.22;;;;;;;17.69;66.59;93654.56;4989856;28;20403;-75
2022/06/12 01:10:55;;;;;;;4.22;3.58;;;;;;;17.69;66.51;93649.19;4989351;28;20046;-74
2022/06/12 01:13:24;;;;;;;8.27;3.60;;;;;;;17.69;66.64;93648.41;4990086;28;20476;-74
2022/06/12 01:15:54;;;;;;;5.53;3.97;;;;;;;17.55;67.22;93654.34;4987605;28;20377;-75
2022/06/12 01:18:24;;;;;;;6.07;3.50;;;;;;;17.45;67.33;93649.56;4990887;28;20065;-74
2022/06/12 01:20:59;;;;;;;7.38;4.28;;;;;;;17.39;67.57;93646.41;4990456;28;20193;-75
2022/06/12 01:23:43;;;;;;;6.10;4.45;;;;;;;17.47;67.72;93649.97;4995600;28;20039;-74
2022/06/12 01:26:11;;;;;;;5.22;3.88;;;;;;;17.40;67.79;93641.81;4989626;28;20066;-74
2022/06/12 01:28:53;;;;;;;4.50;3.60;;;;;;;17.34;67.80;93632.50;4989315;28;20075;-75
2022/06/12 01:31:28;;;;;;;6.70;4.05;;;;;;;17.29;67.93;93630.09;4991192;28;20025;-75
2022/06/12 01:33:56;;;;;;;5.68;4.10;;;;;;;17.34;67.52;93633.28;4988307;28;20038;-75
2022/06/12 01:36:38;;;;;;;6.63;4.13;;;;;;;17.12;67.71;93604.44;4988841;28;20854;-74
2022/06/12 01:39:41;;;;;;;7.45;4.03;;;;;;;17.36;67.59;93630.97;5000373;28;20108;-75
2022/06/12 01:42:32;;;;;;;5.57;3.70;;;;;;;17.22;67.63;93630.75;4990067;28;20045;-75
2022/06/12 01:45:16;;;;;;;4.32;3.85;;;;;;;17.30;67.18;93623.59;4984109;28;20560;-74
2022/06/12 01:47:53;;;;;;;5.65;3.85;;;;;;;17.43;67.02;93627.63;4988797;28;20503;-75
2022/06/12 01:50:34;;;;;;;3.88;3.55;;;;;;;17.45;66.31;93628.06;5004872;28;20484;-73
2022/06/12 01:53:15;;;;;;;4.72;3.92;;;;;;;17.38;66.28;93625.25;4988624;28;20038;-75
2022/06/12 01:55:49;;;;;;;5.20;3.50;;;;;;;17.50;65.61;93627.75;4988885;28;20512;-75
2022/06/12 01:58:23;;;;;;;5.25;3.20;;;;;;;17.69;64.87;93630.38;4993118;28;20033;-74
2022/06/12 02:01:09;;;;;;;4.65;3.50;;;;;;;17.57;64.83;93630.53;4997503;28;20377;-74
2022/06/12 02:03:53;;;;;;;5.68;4.28;;;;;;;17.59;64.79;93634.44;4992099;28;20046;-74
2022/06/12 02:06:32;;;;;;;4.47;3.35;;;;;;;17.50;65.01;93635.84;4989763;28;20038;-75
2022/06/12 02:09:03;;;;;;;5.65;3.28;;;;;;;17.31;66.82;93644.72;4989331;28;20149;-74
2022/06/12 02:14:30;;;;;;;4.17;3.67;;;;;;;17.17;66.93;93642.56;4989755;28;20040;-75
2022/06/12 02:17:00;;;;;;;4.85;3.83;;;;;;;17.22;66.76;93638.03;4988636;28;20044;-75
2022/06/12 02:19:31;;;;;;;6.18;3.53;;;;;;;16.90;66.57;93595.25;4989810;28;20034;-75
2022/06/12 02:22:04;;;;;;;3.95;3.47;;;;;;;17.22;66.74;93629.97;4996089;28;20026;-75
2022/06/12 02:24:37;;;;;;;4.43;3.53;;;;;;;17.15;67.12;93631.44;4990940;28;20038;-75
2022/06/12 02:27:06;;;;;;;6.38;3.83;;;;;;;17.18;66.77;93619.94;4989398;28;20088;-74
2022/06/12 02:29:32;;;;;;;5.28;3.58;;;;;;;17.17;66.83;93623.78;4990595;28;20125;-74
2022/06/12 02:32:01;;;;;;;7.05;3.75;;;;;;;17.11;66.56;93619.78;4990716;28;20044;-75
2022/06/12 02:34:34;;;;;;;4.28;3.53;;;;;;;17.12;66.80;93625.94;4987250;28;20037;-75
2022/06/12 02:37:05;;;;;;;5.78;3.47;;;;;;;17.15;66.50;93630.66;4988034;28;20029;-74
2022/06/12 02:39:37;;;;;;;4.93;3.78;;;;;;;17.08;67.21;93623.22;4989150;28;20041;-75
2022/06/12 02:42:11;;;;;;;4.85;4.35;;;;;;;17.12;67.17;93621.34;4987770;28;20515;-75
2022/06/12 02:44:44;;;;;;;4.10;3.70;;;;;;;17.12;66.98;93618.66;4991087;28;20120;-74
2022/06/12 02:47:15;;;;;;;4.32;3.45;;;;;;;17.21;67.15;93628.44;4988456;28;20419;-75
2022/06/12 02:49:44;;;;;;;7.00;3.70;;;;;;;17.14;67.10;93621.81;4988234;28;20524;-75
2022/06/12 02:52:28;;;;;;;4.80;3.65;;;;;;;16.99;67.19;93633.41;4991335;28;20026;-75
2022/06/12 02:54:56;;;;;;;5.78;4.57;;;;;;;16.96;68.09;93639.50;4988055;28;20030;-74
2022/06/12 02:57:52;;;;;;;4.40;3.80;;;;;;;17.04;67.36;93646.56;4989734;28;20037;-75
2022/06/12 03:00:26;;;;;;;5.63;4.07;;;;;;;16.58;68.13;93623.44;4987132;28;20035;-74
2022/06/12 03:02:57;;;;;;;5.25;4.07;;;;;;;16.71;68.37;93638.28;4990074;28;20156;-75
2022/06/12 03:05:28;;;;;;;4.15;3.75;;;;;;;16.56;69.07;93628.41;4989665;28;20030;-74
2022/06/12 03:08:01;;;;;;;9.15;4.22;;;;;;;16.65;68.97;93645.84;4990032;28;20049;-74
2022/06/12 03:10:31;;;;;;;8.20;4.07;;;;;;;16.71;69.05;93646.34;4989083;28;20046;-75
2022/06/12 03:12:58;;;;;;;5.30;4.28;;;;;;;16.64;69.58;93655.03;4988513;28;20027;-74
2022/06/12 03:15:42;;;;;;;5.82;4.65;;;;;;;16.72;69.18;93650.56;4988761;28;20112;-74
2022/06/12 03:18:13;;;;;;;8.02;4.40;;;;;;;16.72;68.92;93650.56;4990510;28;20061;-74
2022/06/12 03:20:52;;;;;;;5.90;4.15;;;;;;;16.49;69.13;93625.56;4989950;28;20809;-74
2022/06/12 03:23:25;;;;;;;5.68;4.25;;;;;;;16.35;70.35;93627.97;4989540;28;20795;-75
2022/06/12 03:25:53;;;;;;;7.25;5.22;;;;;;;16.44;70.27;93644.63;4988334;28;20034;-75
2022/06/12 03:28:41;;;;;;;5.25;4.43;;;;;;;16.49;70.18;93641.66;4989730;28;20054;-74
2022/06/12 03:31:20;;;;;;;6.45;4.25;;;;;;;16.48;69.97;93653.53;5003579;28;20484;-74
2022/06/12 03:33:51;;;;;;;6.03;4.70;;;;;;;16.53;70.25;93640.59;4990141;28;20034;-73
2022/06/12 03:36:18;;;;;;;6.20;4.97;;;;;;;16.51;70.36;93648.25;4988707;28;20497;-74
2022/06/12 03:38:47;;;;;;;5.45;4.53;;;;;;;16.58;69.91;93640.31;4986178;28;20056;-74
2022/06/12 03:41:23;;;;;;;5.68;4.25;;;;;;;16.59;69.97;93641.09;4989405;28;20045;-75
2022/06/12 03:44:14;;;;;;;4.95;4.15;;;;;;;16.52;69.68;93640.97;4989786;28;20684;-75
2022/06/12 03:46:59;;;;;;;4.88;3.78;;;;;;;16.55;70.05;93640.25;4989031;28;20046;-74
2022/06/12 03:49:46;;;;;;;5.53;4.82;;;;;;;16.69;69.97;93645.91;4987836;28;20038;-74
2022/06/12 03:52:25;;;;;;;7.85;5.00;;;;;;;16.62;69.80;93648.47;4995750;28;20038;-74
2022/06/12 03:55:05;;;;;;;6.90;5.07;;;;;;;16.61;69.59;93644.22;4988647;28;20069;-73
2022/06/12 03:57:52;;;;;;;5.25;4.38;;;;;;;16.58;69.82;93644.91;4994217;28;20048;-75
2022/06/12 04:00:26;;;;;;;7.75;5.13;;;;;;;16.57;70.18;93649.53;4994447;28;20045;-74
2022/06/12 04:03:04;;;;;;;5.97;4.57;;;;;;;16.61;70.44;93663.00;4991822;28;20038;-74
2022/06/12 04:05:44;;;;;;;8.27;5.22;;;;;;;16.69;70.28;93653.94;4996945;28;20732;-74
2022/06/12 04:08:16;;;;;;;6.53;4.90;;;;;;;16.52;70.39;93640.97;4994209;28;20569;-74
2022/06/12 04:10:41;;;;;;;7.55;5.78;;;;;;;16.75;70.27;93656.00;4996063;28;20145;-73
2022/06/12 04:13:12;;;;;;;6.55;5.57;;;;;;;16.72;70.67;93655.94;4992954;28;20051;-75
2022/06/12 04:15:52;;;;;;;7.30;5.30;;;;;;;16.95;69.51;93656.75;4991609;28;20120;-76
2022/06/12 04:18:18;;;;;;;6.85;4.88;;;;;;;16.90;69.58;93643.63;4997821;28;20163;-75
2022/06/12 04:20:50;;;;;;;6.75;5.88;;;;;;;16.87;69.67;93656.97;4992187;28;20042;-74
2022/06/12 04:23:27;;;;;;;7.40;5.43;;;;;;;16.76;69.48;93646.03;4990687;28;20046;-75
2022/06/12 04:26:07;;;;;;;6.32;5.55;;;;;;;16.78;70.15;93657.19;4991535;28;20075;-74
2022/06/12 04:28:36;;;;;;;7.53;5.45;;;;;;;16.79;70.16;93664.13;4990295;28;20064;-74
2022/06/12 04:31:11;;;;;;;7.57;6.13;;;;;;;16.65;70.20;93642.38;4990596;28;20058;-74
2022/06/12 04:34:02;;;;;;;9.10;6.15;;;;;;;16.70;69.94;93642.88;4991320;28;20901;-75
2022/06/12 04:36:27;;;;;;;5.82;4.82;;;;;;;16.73;69.54;93662.84;4991668;28;20062;-74
2022/06/12 04:38:56;;;;;;;7.15;5.78;;;;;;;16.63;70.45;93655.38;4989301;28;20181;-75
2022/06/12 04:41:26;;;;;;;7.88;5.53;;;;;;;16.75;70.34;93677.50;4992360;28;20386;-75
2022/06/12 04:43:51;;;;;;;6.97;5.47;;;;;;;16.69;70.27;93662.00;4990420;28;20093;-74
2022/06/12 04:46:18;;;;;;;7.18;5.65;;;;;;;16.77;70.29;93679.03;4991997;28;20034;-75
2022/06/12 04:48:45;;;;;;;8.00;6.25;;;;;;;16.72;70.19;93661.31;4990598;28;20313;-75
2022/06/12 04:51:12;;;;;;;8.10;5.38;;;;;;;16.72;70.17;93662.06;4990521;28;20062;-75
2022/06/12 04:53:39;;;;;;;8.35;6.10;;;;;;;16.80;69.68;93667.59;4991439;28;20148;-74
2022/06/12 04:56:06;;;;;;;7.55;5.70;;;;;;;16.72;69.49;93650.56;4991686;28;20031;-75
2022/06/12 04:58:31;;;;;;;6.85;5.20;;;;;;;16.88;69.35;93670.03;4989951;28;20031;-75
2022/06/12 05:00:57;;;;;;;6.43;5.20;;;;;;;16.85;69.84;93676.13;4992860;28;20033;-75
2022/06/12 05:03:23;;;;;;;7.03;5.38;;;;;;;16.90;69.39;93681.22;4990892;28;20042;-75
2022/06/12 05:05:49;;;;;;;7.18;5.60;;;;;;;16.91;69.51;93685.47;4989688;28;20090;-75
2022/06/12 05:08:16;;;;;;;6.70;4.70;;;;;;;16.97;68.92;93686.72;4991292;28;20057;-74
2022/06/12 05:10:42;;;;;;;11.13;5.90;;;;;;;16.80;69.35;93668.38;4992715;28;20034;-75
2022/06/12 05:13:08;;;;;;;7.70;6.20;;;;;;;17.02;69.28;93691.00;4990180;28;20057;-75
2022/06/12 05:15:34;;;;;;;9.35;6.22;;;;;;;16.93;69.63;93677.81;4992570;28;20662;-74
2022/06/12 05:18:00;;;;;;;7.95;5.85;;;;;;;16.70;70.33;93637.50;4989782;28;20085;-75
2022/06/12 05:20:31;;;;;;;7.35;5.88;;;;;;;17.22;69.73;93697.16;4993345;28;20298;-75
2022/06/12 05:22:57;;;;;;;7.82;5.40;;;;;;;17.06;68.76;93657.69;4990040;28;20448;-75
2022/06/12 05:25:23;;;;;;;6.13;5.43;;;;;;;17.24;67.93;93684.16;4990376;28;20026;-75
2022/06/12 05:27:49;;;;;;;7.55;5.35;;;;;;;17.34;68.20;93691.63;4990960;28;20463;-75
2022/06/12 05:30:19;;;;;;;8.43;5.25;;;;;;;17.25;68.58;93693.78;4991110;28;20030;-74
2022/06/12 05:32:46;;;;;;;8.38;5.28;;;;;;;17.23;68.67;93680.69;4987186;28;20045;-74
2022/06/12 05:35:12;;;;;;;9.05;5.70;;;;;;;17.18;68.84;93691.72;4989657;28;20034;-73
2022/06/12 05:37:38;;;;;;;6.53;5.35;;;;;;;17.17;68.83;93688.25;4990328;28;20447;-74
2022/06/12 05:40:10;;;;;;;7.47;5.30;;;;;;;17.29;69.22;93689.22;4990299;28;20112;-75
2022/06/12 05:42:38;;;;;;;7.88;5.80;;;;;;;17.25;68.77;93688.41;4989071;28;20026;-74
2022/06/12 05:45:06;;;;;;;8.23;5.90;;;;;;;17.11;68.85;93688.91;4990572;28;20038;-75
2022/06/12 05:47:32;;;;;;;7.10;5.82;;;;;;;17.20;69.14;93686.78;4990986;28;20030;-74
2022/06/12 05:49:58;;;;;;;8.13;5.10;;;;;;;17.34;68.13;93695.09;4998180;28;20029;-75
2022/06/12 05:52:23;;;;;;;6.75;5.60;;;;;;;17.22;67.85;93672.97;4989624;28;20042;-75
2022/06/12 05:54:49;;;;;;;5.75;4.13;;;;;;;17.25;68.06;93693.78;4990489;28;20030;-75
2022/06/12 05:57:14;;;;;;;8.23;5.45;;;;;;;17.21;68.36;93698.31;4989484;28;20045;-74
2022/06/12 05:59:40;;;;;;;9.05;5.95;;;;;;;17.26;69.19;93693.41;4989941;28;20045;-75
2022/06/12 06:02:06;;;;;;;6.90;5.43;;;;;;;17.31;68.94;93693.09;4986963;28;20528;-75
2022/06/12 06:04:32;;;;;;;6.22;5.32;;;;;;;17.43;68.38;93697.53;4990524;28;20049;-75
2022/06/12 06:06:58;;;;;;;6.53;5.13;;;;;;;17.53;68.01;93699.63;4989916;28;20437;-75
2022/06/12 06:09:25;;;;;;;6.90;5.38;;;;;;;17.45;67.45;93685.28;4989239;28;20023;-75
2022/06/12 06:11:50;;;;;;;7.60;5.32;;;;;;;17.41;67.58;93697.88;4986752;28;20078;-75
2022/06/12 06:14:16;;;;;;;7.32;5.75;;;;;;;17.43;67.38;93700.22;4989409;28;20141;-75
2022/06/12 06:16:42;;;;;;;5.40;4.45;;;;;;;17.41;67.17;93707.84;4987761;28;20034;-74
2022/06/12 06:19:09;;;;;;;7.93;4.80;;;;;;;17.38;67.64;93716.66;4988842;28;20031;-75
2022/06/12 06:21:34;;;;;;;6.53;5.00;;;;;;;17.42;67.68;93715.56;4989628;28;20017;-73
2022/06/12 06:24:00;;;;;;;6.57;5.45;;;;;;;17.39;68.13;93710.16;4987304;28;20048;-73
2022/06/12 06:26:25;;;;;;;7.00;5.25;;;;;;;17.38;67.60;93711.28;4989757;28;20334;-74
2022/06/12 06:28:52;;;;;;;7.22;5.60;;;;;;;17.45;67.21;93724.84;4980540;28;20120;-75
2022/06/12 06:31:19;;;;;;;8.38;5.32;;;;;;;17.36;67.36;93711.63;5003864;28;20018;-75
2022/06/12 06:33:44;;;;;;;7.55;5.53;;;;;;;17.45;66.98;93714.09;4989467;28;20476;-75
2022/06/12 06:36:11;;;;;;;7.32;5.88;;;;;;;17.58;67.27;93737.75;4988680;28;20129;-75
2022/06/12 06:38:37;;;;;;;6.78;5.13;;;;;;;17.65;67.22;93739.78;4987267;28;20030;-75
2022/06/12 06:41:04;;;;;;;6.40;5.03;;;;;;;17.71;66.27;93716.81;4986895;28;20053;-74
2022/06/12 06:43:30;;;;;;;6.57;5.57;;;;;;;17.69;66.54;93719.13;4987783;28;20188;-75
2022/06/12 06:46:14;;;;;;;6.85;5.43;;;;;;;17.88;66.07;93737.88;4995970;28;20583;-75
2022/06/12 06:48:41;;;;;;;8.60;5.30;;;;;;;17.95;66.04;93739.91;4989380;28;20035;-74
2022/06/12 06:51:06;;;;;;;6.80;5.70;;;;;;;17.88;65.99;93727.09;4987678;28;20037;-75
2022/06/12 06:53:32;;;;;;;6.57;5.22;;;;;;;18.03;65.87;93744.28;4989100;28;20520;-75
2022/06/12 06:55:57;;;;;;;6.35;5.45;;;;;;;18.04;66.13;93743.91;4987931;28;20727;-75
2022/06/12 06:58:26;;;;;;;6.47;5.18;;;;;;;17.97;66.05;93719.59;4989196;28;20026;-75
2022/06/12 07:00:52;;;;;;;6.78;5.50;;;;;;;18.23;65.70;93748.44;4989317;28;20034;-75
2022/06/12 07:03:18;;;;;;;8.90;5.43;;;;;;;18.35;65.22;93750.13;4989829;28;20579;-75
2022/06/12 07:05:46;;;;;;;7.72;5.70;;;;;;;18.43;64.68;93751.78;4987400;28;20386;-75
2022/06/12 07:08:13;;;;;;;7.63;5.70;;;;;;;18.46;65.09;93751.06;4989431;28;20037;-75
2022/06/12 07:10:39;;;;;;;6.70;5.43;;;;;;;18.54;64.99;93750.00;4989484;28;20091;-75
2022/06/12 07:13:05;;;;;;;6.38;5.30;;;;;;;18.68;64.22;93752.09;4989933;28;20041;-75
2022/06/12 07:15:31;;;;;;;6.32;5.25;;;;;;;18.62;64.29;93742.81;4990471;28;20096;-75
2022/06/12 07:17:58;;;;;;;6.07;5.20;;;;;;;18.67;64.29;93751.34;4987808;28;20045;-75
2022/06/12 07:20:27;;;;;;;7.32;5.90;;;;;;;18.52;64.56;93746.91;4979013;28;20038;-74
2022/06/12 07:22:53;;;;;;;6.57;5.43;;;;;;;18.49;64.61;93744.94;4983872;28;20580;-74
2022/06/12 07:25:19;;;;;;;7.18;5.53;;;;;;;18.56;65.19;93749.66;4983353;28;20040;-75
2022/06/12 07:27:44;;;;;;;7.72;5.35;;;;;;;18.29;64.95;93705.78;4985027;28;20025;-75
2022/06/12 07:30:12;;;;;;;6.68;5.18;;;;;;;18.62;64.98;93742.81;4985385;28;20481;-74
2022/06/12 07:32:38;;;;;;;6.32;5.18;;;;;;;18.64;65.27;93754.75;4983789;28;20162;-74
2022/06/12 07:35:05;;;;;;;6.20;5.05;;;;;;;18.69;64.24;93753.66;4985264;28;20497;-75
2022/06/12 07:37:31;;;;;;;7.00;5.28;;;;;;;18.70;65.08;93755.22;4987403;28;20501;-75
2022/06/12 07:39:57;;;;;;;7.28;5.13;;;;;;;18.72;64.74;93753.75;4991445;28;20037;-75
2022/06/12 07:42:22;;;;;;;7.18;5.55;;;;;;;18.78;64.92;93763.03;4989547;28;20049;-75
2022/06/12 07:44:48;;;;;;;6.72;5.32;;;;;;;18.79;64.46;93750.34;4994334;28;20034;-75
2022/06/12 07:47:14;;;;;;;6.25;4.75;;;;;;;18.64;64.20;93718.97;4988764;28;20054;-73
2022/06/12 07:49:40;;;;;;;6.00;5.18;;;;;;;18.89;64.06;93747.78;4988464;28;20551;-75
2022/06/12 07:52:08;;;;;;;7.18;5.05;;;;;;;19.00;64.08;93763.31;4988449;28;20048;-75
2022/06/12 07:54:36;;;;;;;6.25;4.72;;;;;;;19.08;63.89;93770.34;4988288;28;20030;-73
2022/06/12 07:57:03;;;;;;;6.22;5.47;;;;;;;19.12;64.13;93763.84;4986398;28;20158;-75
2022/06/12 07:59:29;;;;;;;6.47;4.97;;;;;;;19.04;63.97;93747.97;4991431;28;20045;-74
2022/06/12 08:01:54;;;;;;;7.15;4.68;;;;;;;19.20;64.34;93767.41;4979237;28;20437;-75
2022/06/12 08:04:21;;;;;;;6.53;4.88;;;;;;;19.18;64.11;93769.69;4981059;28;20499;-74
2022/06/12 08:06:46;;;;;;;7.30;5.32;;;;;;;19.09;63.58;93743.03;4992614;28;20466;-75
2022/06/12 08:09:12;;;;;;;8.63;5.35;;;;;;;19.28;63.91;93767.13;4985304;28;20061;-75
2022/06/12 08:11:41;;;;;;;6.72;5.47;;;;;;;19.38;63.66;93762.97;4984377;28;20042;-74
2022/06/12 08:14:06;;;;;;;6.03;4.88;;;;;;;19.31;64.59;93752.13;4984332;28;20077;-75
2022/06/12 08:16:33;;;;;;;5.95;5.30;;;;;;;19.25;65.37;93764.38;4987846;28;20041;-75
2022/06/12 08:18:59;;;;;;;6.15;4.70;;;;;;;19.27;65.82;93762.84;4984752;28;20575;-75
2022/06/12 08:21:25;;;;;;;5.70;5.13;;;;;;;19.44;66.53;93761.50;4987623;28;20053;-75
2022/06/12 08:23:54;;;;;;;7.22;5.15;;;;;;;19.57;66.44;93764.72;4984995;28;20383;-74
2022/06/12 08:26:29;;;;;;;5.15;4.65;;;;;;;19.69;63.96;93770.66;4988314;28;20721;-75
2022/06/12 08:29:03;;;;;;;4.53;3.55;;;;;;;19.83;62.23;93778.09;4986608;28;20038;-75
2022/06/12 08:31:40;;;;;;;5.25;3.97;;;;;;;19.69;63.03;93773.34;4985901;28;20436;-74
2022/06/12 08:34:26;;;;;;;4.55;4.07;;;;;;;19.73;64.36;93778.78;4991724;28;20164;-75
2022/06/12 08:36:54;;;;;;;4.57;4.10;;;;;;;19.72;63.04;93778.00;4986042;28;20053;-75
2022/06/12 08:39:21;;;;;;;5.63;4.18;;;;;;;19.76;62.45;93772.63;4986356;28;20034;-76
2022/06/12 08:42:12;;;;;;;5.03;4.35;;;;;;;19.85;62.87;93778.47;4985841;28;20038;-75
2022/06/12 08:44:44;;;;;;;4.47;3.97;;;;;;;19.79;62.65;93781.91;4993352;28;20034;-76
2022/06/12 08:47:17;;;;;;;4.78;4.10;;;;;;;19.62;64.01;93770.56;4985449;28;20053;-75
2022/06/12 08:49:56;;;;;;;4.85;4.35;;;;;;;19.73;63.69;93784.94;4983547;28;20040;-75
2022/06/12 08:52:30;;;;;;;5.63;4.35;;;;;;;19.78;64.53;93783.84;4982263;28;20447;-75
2022/06/12 08:55:14;;;;;;;4.33;3.93;;;;;;;19.89;63.56;93792.81;4983160;28;20092;-75
2022/06/12 08:57:50;;;;;;;4.55;3.72;;;;;;;19.93;62.81;93792.84;4988792;28;21266;-75
2022/06/12 09:00:25;;;;;;;4.70;3.80;;;;;;;19.86;63.17;93765.78;4983228;28;20053;-75
2022/06/12 09:02:50;;;;;;;6.57;4.32;;;;;;;19.88;62.69;93775.06;4982809;28;20040;-75
2022/06/12 09:05:20;;;;;;;6.35;4.43;;;;;;;19.88;64.53;93782.38;4982666;28;20034;-75
2022/06/12 09:08:21;;;;;;;6.43;4.10;;;;;;;19.70;64.52;93784.94;4985404;28;20050;-74
2022/06/12 09:11:08;;;;;;;6.05;4.55;;;;;;;19.70;64.92;93758.69;4993974;28;20042;-74
2022/06/12 09:13:44;;;;;;;6.10;3.75;;;;;;;19.99;62.92;93781.34;4965503;28;20165;-75
2022/06/12 09:16:37;;;;;;;6.30;4.82;;;;;;;19.87;63.26;93784.31;4978365;28;20461;-75
2022/06/12 09:19:21;;;;;;;4.50;3.72;;;;;;;19.86;62.25;93787.34;4988744;28;20481;-75
2022/06/12 09:22:09;;;;;;;9.52;3.65;;;;;;;19.73;63.38;93763.38;4985855;28;20217;-75
2022/06/12 09:24:52;;;;;;;4.80;4.00;;;;;;;19.90;60.74;93790.84;4985460;28;20044;-75
2022/06/12 09:27:47;;;;;;;7.32;4.55;;;;;;;19.91;62.16;93785.09;4984813;28;20034;-75
2022/06/12 09:30:23;;;;;;;4.32;3.78;;;;;;;19.87;63.26;93794.31;4984921;28;20049;-75
2022/06/12 09:33:06;;;;;;;9.02;3.72;;;;;;;19.69;64.72;93775.28;4988498;28;20256;-74
2022/06/12 09:35:51;;;;;;;4.75;3.60;;;;;;;19.92;64.84;93802.06;4987807;28;20088;-74
2022/06/12 09:38:41;;;;;;;3.73;3.00;;;;;;;19.87;63.34;93799.72;4982947;28;20057;-75
2022/06/12 09:41:09;;;;;;;4.03;3.63;;;;;;;19.53;63.30;93807.88;4974851;28;20042;-75
2022/06/12 09:43:49;;;;;;;6.25;4.30;;;;;;;18.97;63.39;93812.56;4986265;28;20042;-75
2022/06/12 09:46:55;;;;;;;5.32;4.53;;;;;;;19.35;65.02;93800.69;4984797;28;20640;-75
2022/06/12 09:49:55;;;;;;;7.70;5.00;;;;;;;19.62;66.14;93800.25;4984978;28;20097;-75
2022/06/12 09:52:45;;;;;;;4.60;3.88;;;;;;;19.80;63.18;93796.97;5000353;28;20509;-74
2022/06/12 09:55:47;;;;;;;5.05;3.45;;;;;;;19.81;63.66;93795.78;4986087;28;20052;-74
2022/06/12 09:58:20;;;;;;;4.80;3.80;;;;;;;19.67;63.62;93791.81;4987371;28;20026;-73
2022/06/12 10:00:53;;;;;;;5.05;4.28;;;;;;;19.64;62.79;93768.28;4986853;28;20030;-71
2022/06/12 10:03:25;;;;;;;3.58;3.28;;;;;;;19.89;63.77;93794.72;4969863;28;20128;-73
2022/06/12 10:06:11;;;;;;;4.03;3.50;;;;;;;19.91;61.23;93781.63;4985038;28;20621;-71
2022/06/12 10:08:51;;;;;;;4.60;4.05;;;;;;;19.94;62.68;93792.47;4988139;28;20042;-72
2022/06/12 10:11:38;;;;;;;3.85;3.30;;;;;;;19.88;62.05;93790.47;4987200;28;20034;-73
2022/06/12 10:14:14;;;;;;;5.10;3.42;;;;;;;19.67;61.64;93770.25;4985618;28;20669;-70
2022/06/12 10:16:49;;;;;;;5.93;4.10;;;;;;;19.45;63.73;93787.38;4985936;28;20060;-71
2022/06/12 10:19:17;;;;;;;3.15;2.83;;;;;;;19.61;62.10;93787.13;4986915;28;20049;-72
2022/06/12 10:22:56;;;;;;;3.47;3.17;;;;;;;19.25;63.27;93767.88;5047237;27;20497;-74
2022/06/12 10:25:35;;;;;;;4.20;3.10;;;;;;;19.20;62.41;93788.97;5022863;28;20048;-73
2022/06/12 10:28:22;;;;;;;4.72;3.50;;;;;;;19.17;63.42;93787.00;5022865;28;20490;-72
2022/06/12 10:31:05;;;;;;;4.60;3.60;;;;;;;19.17;63.93;93785.09;5022610;28;20129;-73
2022/06/12 10:33:42;;;;;;;4.50;3.22;;;;;;;19.16;65.13;93790.84;5021946;28;20527;-72
2022/06/12 10:36:27;;;;;;;5.00;4.00;;;;;;;19.20;66.85;93789.75;5020423;28;20044;-73
2022/06/12 10:39:14;;;;;;;12.90;3.83;;;;;;;19.19;66.89;93792.81;5022313;28;20119;-74
2022/06/12 10:41:46;;;;;;;3.88;3.47;;;;;;;19.22;65.83;93786.66;5019611;28;20496;-72
2022/06/12 10:44:28;;;;;;;5.75;3.58;;;;;;;19.12;65.93;93771.94;5022586;28;20061;-73
2022/06/12 10:46:54;;;;;;;3.78;3.15;;;;;;;19.17;66.02;93778.91;5020825;28;20462;-73
2022/06/12 10:49:23;;;;;;;4.05;3.65;;;;;;;19.17;67.03;93778.91;5027325;28;20029;-71
2022/06/12 10:51:50;;;;;;;4.13;3.70;;;;;;;19.33;65.85;93779.47;5022508;28;20033;-72
2022/06/12 10:54:19;;;;;;;4.55;3.58;;;;;;;19.23;66.58;93772.06;5020291;28;20293;-71
2022/06/12 10:57:07;;;;;;;6.07;3.33;;;;;;;19.30;65.47;93772.94;5020302;28;20068;-72
2022/06/12 10:59:41;;;;;;;4.05;3.20;;;;;;;19.48;65.15;93777.75;5017953;28;20022;-72
2022/06/12 11:02:06;;;;;;;3.90;3.50;;;;;;;19.43;66.49;93786.91;5020813;28;20052;-73
2022/06/12 11:04:59;;;;;;;4.13;3.50;;;;;;;19.24;67.71;93779.78;5021364;28;20037;-72
2022/06/12 11:07:49;;;;;;;6.18;3.72;;;;;;;19.50;67.77;93781.66;5021244;28;20040;-71
2022/06/12 11:10:25;;;;;;;4.50;3.42;;;;;;;19.05;64.37;93776.47;5001878;28;20029;-72
2022/06/12 11:13:11;;;;;;;4.75;3.70;;;;;;;19.62;67.46;93767.88;5020373;28;20035;-72
2022/06/12 11:15:43;;;;;;;4.45;3.30;;;;;;;19.82;64.99;93773.84;5019613;28;20041;-72
2022/06/12 11:18:16;;;;;;;3.28;2.67;;;;;;;19.87;61.31;93767.31;5020351;28;20045;-76
2022/06/12 11:21:19;;;;;;;6.07;3.03;;;;;;;20.00;61.00;93774.00;5022106;28;20610;-72
2022/06/12 11:24:12;;;;;;;2.95;2.58;;;;;;;19.95;57.20;93774.31;5018943;28;20085;-73
2022/06/12 11:26:56;;;;;;;4.82;3.05;;;;;;;19.95;60.39;93771.63;5025085;28;20033;-74
2022/06/12 11:29:36;;;;;;;4.10;3.00;;;;;;;19.79;60.37;93768.41;5021484;28;20037;-75
2022/06/12 11:32:21;;;;;;;5.18;3.40;;;;;;;20.01;60.00;93772.84;5021699;28;20029;-73
2022/06/12 11:34:58;;;;;;;3.15;2.30;;;;;;;20.29;56.42;93767.69;5006499;28;20050;-72
2022/06/12 11:37:35;;;;;;;3.28;2.38;;;;;;;20.44;56.03;93753.13;5009632;28;20037;-74
2022/06/12 11:40:25;;;;;;;3.63;3.20;;;;;;;20.58;57.71;93757.88;5008619;28;20026;-75
2022/06/12 11:43:21;;;;;;;4.55;3.30;;;;;;;20.73;57.98;93758.72;5006352;28;20085;-75
2022/06/12 11:46:14;;;;;;;3.30;2.83;;;;;;;20.77;56.88;93756.81;5005490;28;20050;-76
2022/06/12 11:48:45;;;;;;;3.15;2.75;;;;;;;20.72;58.58;93749.06;5002039;28;20523;-75
2022/06/12 11:51:29;;;;;;;5.85;3.20;;;;;;;20.54;58.44;93762.44;5005487;28;20037;-75
2022/06/12 11:54:04;;;;;;;7.30;6.60;;;;;;;20.11;59.55;93764.06;5002107;28;20447;-76
2022/06/12 11:56:32;;;;;;;4.70;3.67;;;;;;;20.16;60.34;93752.91;5008702;28;20132;-76
2022/06/12 11:59:43;;;;;;;4.00;3.45;;;;;;;20.29;58.64;93761.53;5001932;28;20041;-75
2022/06/12 12:02:33;;;;;;;4.72;4.22;;;;;;;20.48;56.85;93753.16;5010739;28;20080;-74
2022/06/12 12:05:29;;;;;;;5.22;4.25;;;;;;;20.35;58.31;93749.97;5002931;28;20330;-76
2022/06/12 12:08:10;;;;;;;6.20;5.43;;;;;;;20.55;58.31;93753.19;5006731;28;20038;-75
2022/06/12 12:11:08;;;;;;;8.65;6.38;;;;;;;20.76;59.62;93747.13;5004385;28;20037;-75